sensor_id;sensor_type;location;lat;lon;timestamp;temperature;humidity
14924;DHT22;7554;43.600;1.480;2022-12-18T00:02:25;5.50;1.00
14924;DHT22;7554;43.600;1.480;2022-12-18T00:04:52;5.50;1.00
14924;DHT22;7554;43.600;1.480;2022-12-18T00:07:20;5.40;1.00
14924;DHT22;7554;43.600;1.480;2022-12-18T00:09:47;5.40;1.00
14924;DHT22;7554;43.600;1.480;2022-12-18T00:12:15;5.40;1.00
14924;DHT22;7554;43.600;1.480;2022-12-18T00:14:44;5.40;1.00
14924;DHT22;7554;43.600;1.480;2022-12-18T00:17:11;5.40;1.00
14924;DHT22;7554;43.600;1.480;2022-12-18T00:19:39;5.40;1.00
14924;DHT22;7554;43.600;1.480;2022-12-18T00:22:06;5.40;1.00
14924;DHT22;7554;43.600;1.480;2022-12-18T00:24:34;5.20;1.00
14924;DHT22;7554;43.600;1.480;2022-12-18T00:27:01;5.00;1.00
14924;DHT22;7554;43.600;1.480;2022-12-18T00:29:29;5.00;1.00
14924;DHT22;7554;43.600;1.480;2022-12-18T00:31:58;5.00;1.00
14924;DHT22;7554;43.600;1.480;2022-12-18T00:34:25;5.00;1.00
14924;DHT22;7554;43.600;1.480;2022-12-18T00:36:53;4.80;1.00
14924;DHT22;7554;43.600;1.480;2022-12-18T00:39:20;4.90;1.00
14924;DHT22;7554;43.600;1.480;2022-12-18T00:41:48;4.90;1.00
14924;DHT22;7554;43.600;1.480;2022-12-18T00:44:32;4.90;1.00
14924;DHT22;7554;43.600;1.480;2022-12-18T00:47:01;4.90;1.00
14924;DHT22;7554;43.600;1.480;2022-12-18T00:49:29;5.00;1.00
14924;DHT22;7554;43.600;1.480;2022-12-18T00:51:56;5.00;1.00
14924;DHT22;7554;43.600;1.480;2022-12-18T00:54:24;5.00;1.00
14924;DHT22;7554;43.600;1.480;2022-12-18T00:56:51;4.80;1.00
14924;DHT22;7554;43.600;1.480;2022-12-18T00:59:21;4.90;1.00
14924;DHT22;7554;43.600;1.480;2022-12-18T01:01:48;4.90;1.00
14924;DHT22;7554;43.600;1.480;2022-12-18T01:04:17;4.70;1.00
14924;DHT22;7554;43.600;1.480;2022-12-18T01:06:44;4.70;1.00
14924;DHT22;7554;43.600;1.480;2022-12-18T01:09:12;4.50;1.00
14924;DHT22;7554;43.600;1.480;2022-12-18T01:11:40;4.50;1.00
14924;DHT22;7554;43.600;1.480;2022-12-18T01:14:07;4.50;1.00
14924;DHT22;7554;43.600;1.480;2022-12-18T01:16:35;4.50;1.00
14924;DHT22;7554;43.600;1.480;2022-12-18T01:19:02;4.50;1.00
14924;DHT22;7554;43.600;1.480;2022-12-18T01:21:31;4.50;1.00
14924;DHT22;7554;43.600;1.480;2022-12-18T01:23:59;4.40;1.00
14924;DHT22;7554;43.600;1.480;2022-12-18T01:26:27;4.30;1.00
14924;DHT22;7554;43.600;1.480;2022-12-18T01:28:56;4.30;1.00
14924;DHT22;7554;43.600;1.480;2022-12-18T01:31:25;4.20;1.00
14924;DHT22;7554;43.600;1.480;2022-12-18T01:33:53;4.30;1.00
14924;DHT22;7554;43.600;1.480;2022-12-18T01:36:22;4.30;1.00
14924;DHT22;7554;43.600;1.480;2022-12-18T01:38:52;4.30;1.00
14924;DHT22;7554;43.600;1.480;2022-12-18T01:41:21;4.20;1.00
14924;DHT22;7554;43.600;1.480;2022-12-18T01:43:51;4.20;1.00
14924;DHT22;7554;43.600;1.480;2022-12-18T01:46:20;4.20;1.00
14924;DHT22;7554;43.600;1.480;2022-12-18T01:48:53;4.00;1.00
14924;DHT22;7554;43.600;1.480;2022-12-18T01:51:22;4.00;1.00
14924;DHT22;7554;43.600;1.480;2022-12-18T01:53:51;4.00;1.00
14924;DHT22;7554;43.600;1.480;2022-12-18T01:56:20;4.10;1.00
14924;DHT22;7554;43.600;1.480;2022-12-18T01:58:54;4.10;1.00
14924;DHT22;7554;43.600;1.480;2022-12-18T02:01:23;4.00;1.00
14924;DHT22;7554;43.600;1.480;2022-12-18T02:03:51;3.90;1.00
14924;DHT22;7554;43.600;1.480;2022-12-18T02:06:23;4.00;1.00
14924;DHT22;7554;43.600;1.480;2022-12-18T02:09:03;4.00;1.00
14924;DHT22;7554;43.600;1.480;2022-12-18T02:11:39;3.90;1.00
14924;DHT22;7554;43.600;1.480;2022-12-18T02:14:17;3.90;1.00
14924;DHT22;7554;43.600;1.480;2022-12-18T02:16:51;3.90;1.00
14924;DHT22;7554;43.600;1.480;2022-12-18T02:19:44;3.90;1.00
14924;DHT22;7554;43.600;1.480;2022-12-18T02:22:26;3.90;1.00
14924;DHT22;7554;43.600;1.480;2022-12-18T02:25:13;3.90;1.00
14924;DHT22;7554;43.600;1.480;2022-12-18T02:27:47;3.90;1.00
14924;DHT22;7554;43.600;1.480;2022-12-18T02:30:16;3.80;1.00
14924;DHT22;7554;43.600;1.480;2022-12-18T02:32:47;3.90;1.00
14924;DHT22;7554;43.600;1.480;2022-12-18T02:35:21;3.80;1.00
14924;DHT22;7554;43.600;1.480;2022-12-18T02:37:50;3.80;1.00
14924;DHT22;7554;43.600;1.480;2022-12-18T02:40:19;3.80;1.00
14924;DHT22;7554;43.600;1.480;2022-12-18T02:42:49;3.80;1.00
14924;DHT22;7554;43.600;1.480;2022-12-18T02:45:17;3.80;1.00
14924;DHT22;7554;43.600;1.480;2022-12-18T02:47:47;3.80;1.00
14924;DHT22;7554;43.600;1.480;2022-12-18T02:50:21;3.80;1.00
14924;DHT22;7554;43.600;1.480;2022-12-18T02:52:59;3.80;1.00
14924;DHT22;7554;43.600;1.480;2022-12-18T02:55:34;3.70;1.00
14924;DHT22;7554;43.600;1.480;2022-12-18T02:58:14;3.60;1.00
14924;DHT22;7554;43.600;1.480;2022-12-18T03:00:47;3.60;1.00
14924;DHT22;7554;43.600;1.480;2022-12-18T03:03:19;3.60;1.00
14924;DHT22;7554;43.600;1.480;2022-12-18T03:05:53;3.60;1.00
14924;DHT22;7554;43.600;1.480;2022-12-18T03:08:25;3.60;1.00
14924;DHT22;7554;43.600;1.480;2022-12-18T03:10:57;3.60;1.00
14924;DHT22;7554;43.600;1.480;2022-12-18T03:13:31;3.60;1.00
14924;DHT22;7554;43.600;1.480;2022-12-18T03:16:00;3.40;1.00
14924;DHT22;7554;43.600;1.480;2022-12-18T03:18:34;3.30;1.00
14924;DHT22;7554;43.600;1.480;2022-12-18T03:21:06;3.30;1.00
14924;DHT22;7554;43.600;1.480;2022-12-18T03:23:36;3.30;1.00
14924;DHT22;7554;43.600;1.480;2022-12-18T03:26:10;3.20;1.00
14924;DHT22;7554;43.600;1.480;2022-12-18T03:28:46;3.20;1.00
14924;DHT22;7554;43.600;1.480;2022-12-18T03:31:14;3.30;1.00
14924;DHT22;7554;43.600;1.480;2022-12-18T03:33:45;3.30;1.00
14924;DHT22;7554;43.600;1.480;2022-12-18T03:36:14;3.20;1.00
14924;DHT22;7554;43.600;1.480;2022-12-18T03:38:42;3.00;1.00
14924;DHT22;7554;43.600;1.480;2022-12-18T03:41:16;3.00;1.00
14924;DHT22;7554;43.600;1.480;2022-12-18T03:43:51;2.90;1.00
14924;DHT22;7554;43.600;1.480;2022-12-18T03:46:26;2.90;1.00
14924;DHT22;7554;43.600;1.480;2022-12-18T03:49:00;2.80;1.00
14924;DHT22;7554;43.600;1.480;2022-12-18T03:51:36;2.80;1.00
14924;DHT22;7554;43.600;1.480;2022-12-18T03:54:07;2.70;1.00
14924;DHT22;7554;43.600;1.480;2022-12-18T03:56:38;2.80;1.00
14924;DHT22;7554;43.600;1.480;2022-12-18T03:59:10;2.70;1.00
14924;DHT22;7554;43.600;1.480;2022-12-18T04:01:41;2.70;1.00
14924;DHT22;7554;43.600;1.480;2022-12-18T04:04:10;2.60;1.00
14924;DHT22;7554;43.600;1.480;2022-12-18T04:06:40;2.60;1.00
14924;DHT22;7554;43.600;1.480;2022-12-18T04:09:08;2.60;1.00
14924;DHT22;7554;43.600;1.480;2022-12-18T04:11:36;2.60;1.00
14924;DHT22;7554;43.600;1.480;2022-12-18T04:14:03;2.60;1.00
14924;DHT22;7554;43.600;1.480;2022-12-18T04:16:32;2.50;1.00
14924;DHT22;7554;43.600;1.480;2022-12-18T04:18:59;2.50;1.00
14924;DHT22;7554;43.600;1.480;2022-12-18T04:21:27;2.60;1.00
14924;DHT22;7554;43.600;1.480;2022-12-18T04:23:54;2.60;1.00
14924;DHT22;7554;43.600;1.480;2022-12-18T04:26:22;2.50;1.00
14924;DHT22;7554;43.600;1.480;2022-12-18T04:28:49;2.40;1.00
14924;DHT22;7554;43.600;1.480;2022-12-18T04:31:17;2.50;1.00
14924;DHT22;7554;43.600;1.480;2022-12-18T04:33:46;2.50;1.00
14924;DHT22;7554;43.600;1.480;2022-12-18T04:36:13;2.40;1.00
14924;DHT22;7554;43.600;1.480;2022-12-18T04:38:41;2.40;1.00
14924;DHT22;7554;43.600;1.480;2022-12-18T04:41:08;2.50;1.00
14924;DHT22;7554;43.600;1.480;2022-12-18T04:43:35;2.50;1.00
14924;DHT22;7554;43.600;1.480;2022-12-18T04:46:04;2.60;1.00
14924;DHT22;7554;43.600;1.480;2022-12-18T04:48:31;2.50;1.00
14924;DHT22;7554;43.600;1.480;2022-12-18T04:51:01;2.60;1.00
14924;DHT22;7554;43.600;1.480;2022-12-18T04:53:28;2.60;1.00
14924;DHT22;7554;43.600;1.480;2022-12-18T04:56:06;2.70;1.00
14924;DHT22;7554;43.600;1.480;2022-12-18T04:58:34;2.70;1.00
14924;DHT22;7554;43.600;1.480;2022-12-18T05:01:02;2.80;1.00
14924;DHT22;7554;43.600;1.480;2022-12-18T05:03:30;2.70;1.00
14924;DHT22;7554;43.600;1.480;2022-12-18T05:05:57;2.70;1.00
14924;DHT22;7554;43.600;1.480;2022-12-18T05:08:26;2.70;1.00
14924;DHT22;7554;43.600;1.480;2022-12-18T05:10:58;2.80;1.00
14924;DHT22;7554;43.600;1.480;2022-12-18T05:13:27;2.80;1.00
14924;DHT22;7554;43.600;1.480;2022-12-18T05:15:54;2.90;1.00
14924;DHT22;7554;43.600;1.480;2022-12-18T05:18:22;2.90;1.00
14924;DHT22;7554;43.600;1.480;2022-12-18T05:20:50;3.00;1.00
14924;DHT22;7554;43.600;1.480;2022-12-18T05:23:18;3.00;1.00
14924;DHT22;7554;43.600;1.480;2022-12-18T05:25:50;3.00;1.00
14924;DHT22;7554;43.600;1.480;2022-12-18T05:28:18;3.00;1.00
14924;DHT22;7554;43.600;1.480;2022-12-18T05:30:49;3.00;1.00
14924;DHT22;7554;43.600;1.480;2022-12-18T05:33:17;3.00;1.00
14924;DHT22;7554;43.600;1.480;2022-12-18T05:35:49;2.90;1.00
14924;DHT22;7554;43.600;1.480;2022-12-18T05:38:17;2.90;1.00
14924;DHT22;7554;43.600;1.480;2022-12-18T05:40:45;2.80;1.00
14924;DHT22;7554;43.600;1.480;2022-12-18T05:43:14;2.80;1.00
14924;DHT22;7554;43.600;1.480;2022-12-18T05:45:42;2.80;1.00
14924;DHT22;7554;43.600;1.480;2022-12-18T05:48:09;2.80;1.00
14924;DHT22;7554;43.600;1.480;2022-12-18T05:50:38;2.80;1.00
14924;DHT22;7554;43.600;1.480;2022-12-18T05:53:06;2.80;1.00
14924;DHT22;7554;43.600;1.480;2022-12-18T05:55:36;2.70;1.00
14924;DHT22;7554;43.600;1.480;2022-12-18T05:58:06;2.70;1.00
14924;DHT22;7554;43.600;1.480;2022-12-18T06:00:37;2.70;1.00
14924;DHT22;7554;43.600;1.480;2022-12-18T06:03:06;2.80;1.00
14924;DHT22;7554;43.600;1.480;2022-12-18T06:05:35;2.80;1.00
14924;DHT22;7554;43.600;1.480;2022-12-18T06:08:03;2.80;1.00
14924;DHT22;7554;43.600;1.480;2022-12-18T06:10:31;2.80;1.00
14924;DHT22;7554;43.600;1.480;2022-12-18T06:12:58;2.80;1.00
14924;DHT22;7554;43.600;1.480;2022-12-18T06:15:26;2.70;1.00
14924;DHT22;7554;43.600;1.480;2022-12-18T06:17:55;2.70;1.00
14924;DHT22;7554;43.600;1.480;2022-12-18T06:20:22;2.70;1.00
14924;DHT22;7554;43.600;1.480;2022-12-18T06:22:50;2.70;1.00
14924;DHT22;7554;43.600;1.480;2022-12-18T06:25:18;2.70;1.00
14924;DHT22;7554;43.600;1.480;2022-12-18T06:27:47;2.70;1.00
14924;DHT22;7554;43.600;1.480;2022-12-18T06:30:15;2.70;1.00
14924;DHT22;7554;43.600;1.480;2022-12-18T06:32:42;2.70;1.00
14924;DHT22;7554;43.600;1.480;2022-12-18T06:35:11;2.70;1.00
14924;DHT22;7554;43.600;1.480;2022-12-18T06:37:39;2.70;1.00
14924;DHT22;7554;43.600;1.480;2022-12-18T06:40:07;2.70;1.00
14924;DHT22;7554;43.600;1.480;2022-12-18T06:42:35;2.70;1.00
14924;DHT22;7554;43.600;1.480;2022-12-18T06:45:03;2.70;1.00
14924;DHT22;7554;43.600;1.480;2022-12-18T06:47:30;2.70;1.00
14924;DHT22;7554;43.600;1.480;2022-12-18T06:49:58;2.70;1.00
14924;DHT22;7554;43.600;1.480;2022-12-18T06:52:27;2.70;1.00
14924;DHT22;7554;43.600;1.480;2022-12-18T06:54:54;2.70;1.00
14924;DHT22;7554;43.600;1.480;2022-12-18T06:57:22;2.60;1.00
14924;DHT22;7554;43.600;1.480;2022-12-18T06:59:49;2.70;1.00
14924;DHT22;7554;43.600;1.480;2022-12-18T07:02:17;2.70;1.00
14924;DHT22;7554;43.600;1.480;2022-12-18T07:04:44;2.80;1.00
14924;DHT22;7554;43.600;1.480;2022-12-18T07:07:12;2.80;1.00
14924;DHT22;7554;43.600;1.480;2022-12-18T07:09:41;2.80;1.00
14924;DHT22;7554;43.600;1.480;2022-12-18T07:12:08;2.80;1.00
14924;DHT22;7554;43.600;1.480;2022-12-18T07:14:35;2.80;1.00
14924;DHT22;7554;43.600;1.480;2022-12-18T07:17:03;2.80;1.00
14924;DHT22;7554;43.600;1.480;2022-12-18T07:19:31;2.80;1.00
14924;DHT22;7554;43.600;1.480;2022-12-18T07:21:58;2.90;1.00
14924;DHT22;7554;43.600;1.480;2022-12-18T07:24:26;2.90;1.00
14924;DHT22;7554;43.600;1.480;2022-12-18T07:26:55;2.90;1.00
14924;DHT22;7554;43.600;1.480;2022-12-18T07:29:22;3.00;1.00
14924;DHT22;7554;43.600;1.480;2022-12-18T07:31:50;3.00;1.00
14924;DHT22;7554;43.600;1.480;2022-12-18T07:34:17;3.10;1.00
14924;DHT22;7554;43.600;1.480;2022-12-18T07:36:45;3.20;1.00
14924;DHT22;7554;43.600;1.480;2022-12-18T07:39:12;3.40;1.00
14924;DHT22;7554;43.600;1.480;2022-12-18T07:41:40;3.60;1.00
14924;DHT22;7554;43.600;1.480;2022-12-18T07:44:13;3.80;1.00
14924;DHT22;7554;43.600;1.480;2022-12-18T07:46:40;4.00;1.00
14924;DHT22;7554;43.600;1.480;2022-12-18T07:49:08;4.10;1.00
14924;DHT22;7554;43.600;1.480;2022-12-18T07:51:35;4.30;1.00
14924;DHT22;7554;43.600;1.480;2022-12-18T07:54:03;4.50;1.00
14924;DHT22;7554;43.600;1.480;2022-12-18T07:56:30;4.60;1.00
14924;DHT22;7554;43.600;1.480;2022-12-18T07:58:59;4.70;1.00
14924;DHT22;7554;43.600;1.480;2022-12-18T08:01:30;4.70;1.00
14924;DHT22;7554;43.600;1.480;2022-12-18T08:03:57;4.90;1.00
14924;DHT22;7554;43.600;1.480;2022-12-18T08:06:25;5.10;1.00
14924;DHT22;7554;43.600;1.480;2022-12-18T08:08:53;5.10;1.00
14924;DHT22;7554;43.600;1.480;2022-12-18T08:11:21;5.30;1.00
14924;DHT22;7554;43.600;1.480;2022-12-18T08:13:49;5.40;1.00
14924;DHT22;7554;43.600;1.480;2022-12-18T08:16:17;5.60;1.00
14924;DHT22;7554;43.600;1.480;2022-12-18T08:18:46;5.70;1.00
14924;DHT22;7554;43.600;1.480;2022-12-18T08:21:16;5.80;1.00
14924;DHT22;7554;43.600;1.480;2022-12-18T08:23:44;5.90;1.00
14924;DHT22;7554;43.600;1.480;2022-12-18T08:26:12;6.00;1.00
14924;DHT22;7554;43.600;1.480;2022-12-18T08:28:40;5.90;1.00
14924;DHT22;7554;43.600;1.480;2022-12-18T08:31:08;5.90;1.00
14924;DHT22;7554;43.600;1.480;2022-12-18T08:33:36;6.00;1.00
14924;DHT22;7554;43.600;1.480;2022-12-18T08:36:07;6.10;1.00
14924;DHT22;7554;43.600;1.480;2022-12-18T08:38:35;6.20;1.00
14924;DHT22;7554;43.600;1.480;2022-12-18T08:41:04;5.90;1.00
14924;DHT22;7554;43.600;1.480;2022-12-18T08:43:32;6.00;1.00
14924;DHT22;7554;43.600;1.480;2022-12-18T08:46:17;6.00;1.00
14924;DHT22;7554;43.600;1.480;2022-12-18T08:48:45;5.90;1.00
14924;DHT22;7554;43.600;1.480;2022-12-18T08:51:16;6.00;1.00
14924;DHT22;7554;43.600;1.480;2022-12-18T08:53:43;6.30;1.00
14924;DHT22;7554;43.600;1.480;2022-12-18T08:56:12;6.50;1.00
14924;DHT22;7554;43.600;1.480;2022-12-18T08:58:39;6.70;1.00
14924;DHT22;7554;43.600;1.480;2022-12-18T09:01:09;6.80;1.00
14924;DHT22;7554;43.600;1.480;2022-12-18T09:03:37;7.20;1.00
14924;DHT22;7554;43.600;1.480;2022-12-18T09:06:06;7.40;1.00
14924;DHT22;7554;43.600;1.480;2022-12-18T09:08:35;7.50;1.00
14924;DHT22;7554;43.600;1.480;2022-12-18T09:11:03;7.60;1.00
14924;DHT22;7554;43.600;1.480;2022-12-18T09:13:31;7.70;1.00
14924;DHT22;7554;43.600;1.480;2022-12-18T09:15:58;7.80;1.00
14924;DHT22;7554;43.600;1.480;2022-12-18T09:18:26;7.90;1.00
14924;DHT22;7554;43.600;1.480;2022-12-18T09:20:54;8.00;1.00
14924;DHT22;7554;43.600;1.480;2022-12-18T09:23:21;8.10;1.00
14924;DHT22;7554;43.600;1.480;2022-12-18T09:25:50;8.20;1.00
14924;DHT22;7554;43.600;1.480;2022-12-18T09:28:18;8.30;1.00
14924;DHT22;7554;43.600;1.480;2022-12-18T09:30:48;8.40;1.00
14924;DHT22;7554;43.600;1.480;2022-12-18T09:33:16;8.40;1.00
14924;DHT22;7554;43.600;1.480;2022-12-18T09:35:45;8.50;1.00
14924;DHT22;7554;43.600;1.480;2022-12-18T09:38:14;8.50;1.00
14924;DHT22;7554;43.600;1.480;2022-12-18T09:40:44;8.60;1.00
14924;DHT22;7554;43.600;1.480;2022-12-18T09:43:18;8.70;1.00
14924;DHT22;7554;43.600;1.480;2022-12-18T09:45:49;8.80;1.00
14924;DHT22;7554;43.600;1.480;2022-12-18T09:48:23;8.90;1.00
14924;DHT22;7554;43.600;1.480;2022-12-18T09:50:52;8.90;1.00
14924;DHT22;7554;43.600;1.480;2022-12-18T09:53:26;9.00;1.00
14924;DHT22;7554;43.600;1.480;2022-12-18T09:55:55;9.10;1.00
14924;DHT22;7554;43.600;1.480;2022-12-18T09:58:30;9.10;1.00
14924;DHT22;7554;43.600;1.480;2022-12-18T10:00:59;9.20;1.00
14924;DHT22;7554;43.600;1.480;2022-12-18T10:03:26;9.10;1.00
14924;DHT22;7554;43.600;1.480;2022-12-18T10:06:01;9.20;1.00
14924;DHT22;7554;43.600;1.480;2022-12-18T10:08:36;9.20;1.00
14924;DHT22;7554;43.600;1.480;2022-12-18T10:11:21;9.30;1.00
14924;DHT22;7554;43.600;1.480;2022-12-18T10:13:58;9.30;1.00
14924;DHT22;7554;43.600;1.480;2022-12-18T10:16:35;9.40;1.00
14924;DHT22;7554;43.600;1.480;2022-12-18T10:19:22;9.40;1.00
14924;DHT22;7554;43.600;1.480;2022-12-18T10:21:56;9.40;1.00
14924;DHT22;7554;43.600;1.480;2022-12-18T10:24:32;9.40;1.00
14924;DHT22;7554;43.600;1.480;2022-12-18T10:27:11;9.40;1.00
14924;DHT22;7554;43.600;1.480;2022-12-18T10:29:41;9.40;1.00
14924;DHT22;7554;43.600;1.480;2022-12-18T10:32:14;9.50;1.00
14924;DHT22;7554;43.600;1.480;2022-12-18T10:34:45;9.50;1.00
14924;DHT22;7554;43.600;1.480;2022-12-18T10:37:17;9.50;1.00
14924;DHT22;7554;43.600;1.480;2022-12-18T10:39:45;9.50;1.00
14924;DHT22;7554;43.600;1.480;2022-12-18T10:42:18;9.60;1.00
14924;DHT22;7554;43.600;1.480;2022-12-18T10:45:01;9.50;1.00
14924;DHT22;7554;43.600;1.480;2022-12-18T10:47:29;9.50;1.00
14924;DHT22;7554;43.600;1.480;2022-12-18T10:49:57;9.50;1.00
14924;DHT22;7554;43.600;1.480;2022-12-18T10:52:25;9.50;1.00
14924;DHT22;7554;43.600;1.480;2022-12-18T10:54:57;9.50;1.00
14924;DHT22;7554;43.600;1.480;2022-12-18T10:57:35;9.50;1.00
14924;DHT22;7554;43.600;1.480;2022-12-18T11:00:27;9.50;1.00
14924;DHT22;7554;43.600;1.480;2022-12-18T11:02:56;9.50;1.00
14924;DHT22;7554;43.600;1.480;2022-12-18T11:05:26;9.50;1.00
14924;DHT22;7554;43.600;1.480;2022-12-18T11:07:55;9.50;1.00
14924;DHT22;7554;43.600;1.480;2022-12-18T11:10:27;9.60;1.00
14924;DHT22;7554;43.600;1.480;2022-12-18T11:12:55;9.70;1.00
14924;DHT22;7554;43.600;1.480;2022-12-18T11:15:28;9.70;1.00
14924;DHT22;7554;43.600;1.480;2022-12-18T11:17:57;9.80;1.00
14924;DHT22;7554;43.600;1.480;2022-12-18T11:20:31;9.80;1.00
14924;DHT22;7554;43.600;1.480;2022-12-18T11:23:01;9.80;1.00
14924;DHT22;7554;43.600;1.480;2022-12-18T11:25:30;9.80;1.00
14924;DHT22;7554;43.600;1.480;2022-12-18T11:28:01;9.80;1.00
14924;DHT22;7554;43.600;1.480;2022-12-18T11:30:32;9.90;1.00
14924;DHT22;7554;43.600;1.480;2022-12-18T11:33:04;9.90;1.00
14924;DHT22;7554;43.600;1.480;2022-12-18T11:35:44;10.00;1.00
14924;DHT22;7554;43.600;1.480;2022-12-18T11:38:20;9.90;1.00
14924;DHT22;7554;43.600;1.480;2022-12-18T11:40:55;10.00;1.00
14924;DHT22;7554;43.600;1.480;2022-12-18T11:43:28;10.00;1.00
14924;DHT22;7554;43.600;1.480;2022-12-18T11:46:02;10.00;1.00
14924;DHT22;7554;43.600;1.480;2022-12-18T11:48:34;10.00;1.00
14924;DHT22;7554;43.600;1.480;2022-12-18T11:51:09;10.10;1.00
14924;DHT22;7554;43.600;1.480;2022-12-18T11:53:38;10.10;1.00
14924;DHT22;7554;43.600;1.480;2022-12-18T11:56:27;10.10;1.00
14924;DHT22;7554;43.600;1.480;2022-12-18T11:59:03;10.10;1.00
14924;DHT22;7554;43.600;1.480;2022-12-18T12:01:43;10.10;1.00
14924;DHT22;7554;43.600;1.480;2022-12-18T12:07:21;10.10;1.00
14924;DHT22;7554;43.600;1.480;2022-12-18T12:09:58;10.20;1.00
14924;DHT22;7554;43.600;1.480;2022-12-18T12:12:37;10.10;1.00
14924;DHT22;7554;43.600;1.480;2022-12-18T12:15:21;10.20;1.00
14924;DHT22;7554;43.600;1.480;2022-12-18T12:17:55;10.20;1.00
14924;DHT22;7554;43.600;1.480;2022-12-18T12:20:33;10.20;1.00
14924;DHT22;7554;43.600;1.480;2022-12-18T12:23:07;10.30;1.00
14924;DHT22;7554;43.600;1.480;2022-12-18T12:25:41;10.30;1.00
14924;DHT22;7554;43.600;1.480;2022-12-18T12:28:19;10.30;1.00
14924;DHT22;7554;43.600;1.480;2022-12-18T12:30:58;10.40;1.00
14924;DHT22;7554;43.600;1.480;2022-12-18T12:33:37;10.40;1.00
14924;DHT22;7554;43.600;1.480;2022-12-18T12:36:13;10.50;1.00
14924;DHT22;7554;43.600;1.480;2022-12-18T12:38:44;10.50;1.00
14924;DHT22;7554;43.600;1.480;2022-12-18T12:41:18;10.50;1.00
14924;DHT22;7554;43.600;1.480;2022-12-18T12:44:06;10.50;1.00
14924;DHT22;7554;43.600;1.480;2022-12-18T12:46:37;10.50;1.00
14924;DHT22;7554;43.600;1.480;2022-12-18T12:49:12;10.50;1.00
14924;DHT22;7554;43.600;1.480;2022-12-18T12:51:43;10.50;1.00
14924;DHT22;7554;43.600;1.480;2022-12-18T12:54:15;10.60;1.00
14924;DHT22;7554;43.600;1.480;2022-12-18T12:56:48;10.50;1.00
14924;DHT22;7554;43.600;1.480;2022-12-18T12:59:25;10.60;1.00
14924;DHT22;7554;43.600;1.480;2022-12-18T13:02:02;10.60;1.00
14924;DHT22;7554;43.600;1.480;2022-12-18T13:04:36;10.60;1.00
14924;DHT22;7554;43.600;1.480;2022-12-18T13:07:12;10.60;1.00
14924;DHT22;7554;43.600;1.480;2022-12-18T13:10:13;10.60;1.00
14924;DHT22;7554;43.600;1.480;2022-12-18T13:12:52;10.60;1.00
14924;DHT22;7554;43.600;1.480;2022-12-18T13:15:23;10.60;1.00
14924;DHT22;7554;43.600;1.480;2022-12-18T13:18:13;10.70;1.00
14924;DHT22;7554;43.600;1.480;2022-12-18T13:20:45;10.70;1.00
14924;DHT22;7554;43.600;1.480;2022-12-18T13:23:34;10.70;1.00
14924;DHT22;7554;43.600;1.480;2022-12-18T13:26:30;10.70;1.00
14924;DHT22;7554;43.600;1.480;2022-12-18T13:29:04;10.60;1.00
14924;DHT22;7554;43.600;1.480;2022-12-18T13:31:59;10.70;1.00
14924;DHT22;7554;43.600;1.480;2022-12-18T13:34:28;10.60;1.00
14924;DHT22;7554;43.600;1.480;2022-12-18T13:43:30;10.60;1.00
14924;DHT22;7554;43.600;1.480;2022-12-18T13:46:23;10.60;1.00
14924;DHT22;7554;43.600;1.480;2022-12-18T13:48:57;10.60;1.00
14924;DHT22;7554;43.600;1.480;2022-12-18T13:51:26;10.60;1.00
14924;DHT22;7554;43.600;1.480;2022-12-18T13:53:58;10.70;1.00
14924;DHT22;7554;43.600;1.480;2022-12-18T13:56:28;10.60;1.00
14924;DHT22;7554;43.600;1.480;2022-12-18T13:59:19;10.70;1.00
14924;DHT22;7554;43.600;1.480;2022-12-18T14:01:51;10.70;1.00
14924;DHT22;7554;43.600;1.480;2022-12-18T14:04:22;10.80;1.00
14924;DHT22;7554;43.600;1.480;2022-12-18T14:06:52;10.80;1.00
14924;DHT22;7554;43.600;1.480;2022-12-18T14:09:25;10.80;1.00
14924;DHT22;7554;43.600;1.480;2022-12-18T14:11:54;10.90;1.00
14924;DHT22;7554;43.600;1.480;2022-12-18T14:14:45;10.90;1.00
14924;DHT22;7554;43.600;1.480;2022-12-18T14:17:15;11.00;1.00
14924;DHT22;7554;43.600;1.480;2022-12-18T14:19:44;10.90;1.00
14924;DHT22;7554;43.600;1.480;2022-12-18T14:22:16;11.00;1.00
14924;DHT22;7554;43.600;1.480;2022-12-18T14:24:46;11.00;1.00
14924;DHT22;7554;43.600;1.480;2022-12-18T14:27:21;11.00;1.00
14924;DHT22;7554;43.600;1.480;2022-12-18T14:29:50;11.10;1.00
14924;DHT22;7554;43.600;1.480;2022-12-18T14:32:18;11.10;1.00
14924;DHT22;7554;43.600;1.480;2022-12-18T14:34:48;11.00;1.00
14924;DHT22;7554;43.600;1.480;2022-12-18T14:37:17;11.00;1.00
14924;DHT22;7554;43.600;1.480;2022-12-18T14:39:58;11.00;1.00
14924;DHT22;7554;43.600;1.480;2022-12-18T14:42:27;11.00;1.00
14924;DHT22;7554;43.600;1.480;2022-12-18T14:45:35;11.00;1.00
14924;DHT22;7554;43.600;1.480;2022-12-18T14:48:07;11.00;1.00
14924;DHT22;7554;43.600;1.480;2022-12-18T14:50:35;11.00;1.00
14924;DHT22;7554;43.600;1.480;2022-12-18T14:53:03;11.00;1.00
14924;DHT22;7554;43.600;1.480;2022-12-18T14:55:35;11.00;1.00
14924;DHT22;7554;43.600;1.480;2022-12-18T14:58:03;11.00;1.00
14924;DHT22;7554;43.600;1.480;2022-12-18T15:00:30;11.00;1.00
14924;DHT22;7554;43.600;1.480;2022-12-18T15:02:58;11.00;1.00
14924;DHT22;7554;43.600;1.480;2022-12-18T15:05:27;11.00;1.00
14924;DHT22;7554;43.600;1.480;2022-12-18T15:07:57;11.00;1.00
14924;DHT22;7554;43.600;1.480;2022-12-18T15:10:26;10.90;1.00
14924;DHT22;7554;43.600;1.480;2022-12-18T15:13:21;10.90;1.00
14924;DHT22;7554;43.600;1.480;2022-12-18T15:15:49;10.90;1.00
14924;DHT22;7554;43.600;1.480;2022-12-18T15:18:18;10.90;1.00
14924;DHT22;7554;43.600;1.480;2022-12-18T15:20:49;10.90;1.00
14924;DHT22;7554;43.600;1.480;2022-12-18T15:23:21;10.90;1.00
14924;DHT22;7554;43.600;1.480;2022-12-18T15:25:55;10.80;1.00
14924;DHT22;7554;43.600;1.480;2022-12-18T15:28:26;10.80;1.00
14924;DHT22;7554;43.600;1.480;2022-12-18T15:31:02;10.80;1.00
14924;DHT22;7554;43.600;1.480;2022-12-18T15:33:32;10.80;1.00
14924;DHT22;7554;43.600;1.480;2022-12-18T15:36:02;10.70;1.00
14924;DHT22;7554;43.600;1.480;2022-12-18T15:38:30;10.70;1.00
14924;DHT22;7554;43.600;1.480;2022-12-18T15:40:58;10.70;1.00
14924;DHT22;7554;43.600;1.480;2022-12-18T15:43:27;10.60;1.00
14924;DHT22;7554;43.600;1.480;2022-12-18T15:46:00;10.70;1.00
14924;DHT22;7554;43.600;1.480;2022-12-18T15:48:28;10.60;1.00
14924;DHT22;7554;43.600;1.480;2022-12-18T15:50:56;10.50;1.00
14924;DHT22;7554;43.600;1.480;2022-12-18T15:53:27;10.60;1.00
14924;DHT22;7554;43.600;1.480;2022-12-18T15:55:55;10.50;1.00
14924;DHT22;7554;43.600;1.480;2022-12-18T15:58:41;10.50;1.00
14924;DHT22;7554;43.600;1.480;2022-12-18T16:01:09;10.50;1.00
14924;DHT22;7554;43.600;1.480;2022-12-18T16:03:37;10.50;1.00
14924;DHT22;7554;43.600;1.480;2022-12-18T16:06:05;10.50;1.00
14924;DHT22;7554;43.600;1.480;2022-12-18T16:08:33;10.40;1.00
14924;DHT22;7554;43.600;1.480;2022-12-18T16:11:01;10.30;1.00
14924;DHT22;7554;43.600;1.480;2022-12-18T16:13:28;10.30;1.00
14924;DHT22;7554;43.600;1.480;2022-12-18T16:15:58;10.40;1.00
14924;DHT22;7554;43.600;1.480;2022-12-18T16:18:25;10.40;1.00
14924;DHT22;7554;43.600;1.480;2022-12-18T16:20:53;10.30;1.00
14924;DHT22;7554;43.600;1.480;2022-12-18T16:23:20;10.30;1.00
14924;DHT22;7554;43.600;1.480;2022-12-18T16:25:48;10.30;1.00
14924;DHT22;7554;43.600;1.480;2022-12-18T16:28:15;10.30;1.00
14924;DHT22;7554;43.600;1.480;2022-12-18T16:30:43;10.20;1.00
14924;DHT22;7554;43.600;1.480;2022-12-18T16:33:12;10.10;1.00
14924;DHT22;7554;43.600;1.480;2022-12-18T16:35:40;10.10;1.00
14924;DHT22;7554;43.600;1.480;2022-12-18T16:38:07;10.00;1.00
14924;DHT22;7554;43.600;1.480;2022-12-18T16:40:35;10.10;1.00
14924;DHT22;7554;43.600;1.480;2022-12-18T16:43:22;10.10;1.00
14924;DHT22;7554;43.600;1.480;2022-12-18T16:45:50;10.00;1.00
14924;DHT22;7554;43.600;1.480;2022-12-18T16:48:19;10.10;1.00